Time;durP1;ratioP1;P1;durP2;ratioP2;P2;SDS_P1;SDS_P2;PMS_P1;PMS_P2;Temp;Humidity;BMP_temperature;BMP_pressure;BME280_temperature;BME280_humidity;BME280_pressure;Samples;Min_cycle;Max_cycle;Signal;HPM_P1;HPM_P2
2022/10/03 00:00:10;;;;;;;;;;;;;;;;;;5055337;28;20318;-77
2022/10/03 00:02:35;;;;;;;;;;;;;;;;;;5053982;28;20000;-77
2022/10/03 00:05:01;;;;;;;;;;;;;;;;;;5054423;28;19967;-77
2022/10/03 00:07:26;;;;;;;;;;;;;;;;;;5037309;28;19939;-78
2022/10/03 00:09:51;;;;;;;;;;;;;;;;;;5037580;28;19919;-78
2022/10/03 00:12:17;;;;;;;;;;;;;;;;;;5055191;28;20260;-76
2022/10/03 00:14:42;;;;;;;;;;;;;;;;;;5053918;28;20000;-77
2022/10/03 00:17:08;;;;;;;;;;;;;;;;;;5037700;28;20442;-77
2022/10/03 00:19:33;;;;;;;;;;;;;;;;;;5054969;28;19913;-77
2022/10/03 00:21:59;;;;;;;;;;;;;;;;;;5054567;28;19920;-76
2022/10/03 00:24:25;;;;;;;;;;;;;;;;;;5055217;28;19913;-77
2022/10/03 00:26:50;;;;;;;;;;;;;;;;;;5055305;28;19927;-76
2022/10/03 00:29:15;;;;;;;;;;;;;;;;;;5037101;28;19963;-77
2022/10/03 00:31:41;;;;;;;;;;;;;;;;;;5055140;28;19968;-78
2022/10/03 00:34:07;;;;;;;;;;;;;;;;;;5054469;28;19913;-76
2022/10/03 00:36:33;;;;;;;;;;;;;;;;;;5055008;28;20337;-78
2022/10/03 00:38:59;;;;;;;;;;;;;;;;;;5036981;28;19913;-77
2022/10/03 00:41:24;;;;;;;;;;;;;;;;;;5035035;28;20269;-76
2022/10/03 00:43:50;;;;;;;;;;;;;;;;;;5034834;28;20478;-77
2022/10/03 00:46:15;;;;;;;;;;;;;;;;;;5034879;28;19913;-76
2022/10/03 00:48:40;;;;;;;;;;;;;;;;;;5035067;28;19921;-78
2022/10/03 00:51:06;;;;;;;;;;;;;;;;;;5017721;28;19913;-77
2022/10/03 00:53:31;;;;;;;;;;;;;;;;;;5042682;28;20007;-76
2022/10/03 00:55:57;;;;;;;;;;;;;;;;;;5042373;28;19919;-77
2022/10/03 00:58:22;;;;;;;;;;;;;;;;;;5074125;28;19901;-76
2022/10/03 01:00:48;;;;;;;;;;;;;;;;;;5073056;28;19912;-79
2022/10/03 01:03:13;;;;;;;;;;;;;;;;;;5072555;28;19995;-77
2022/10/03 01:05:38;;;;;;;;;;;;;;;;;;5069466;28;19944;-77
2022/10/03 01:08:04;;;;;;;;;;;;;;;;;;5054780;28;19912;-77
2022/10/03 01:10:29;;;;;;;;;;;;;;;;;;5059037;28;20000;-76
2022/10/03 01:12:55;;;;;;;;;;;;;;;;;;5041027;28;19948;-77
2022/10/03 01:15:20;;;;;;;;;;;;;;;;;;5040549;28;19917;-77
2022/10/03 01:17:47;;;;;;;;;;;;;;;;;;5041825;28;20364;-77
2022/10/03 01:20:13;;;;;;;;;;;;;;;;;;5038151;28;19913;-78
2022/10/03 01:22:38;;;;;;;;;;;;;;;;;;5021083;28;19950;-77
2022/10/03 01:25:03;;;;;;;;;;;;;;;;;;5038699;28;19956;-75
2022/10/03 01:27:29;;;;;;;;;;;;;;;;;;5054975;28;20406;-78
2022/10/03 01:32:38;;;;;;;;;;;;;;;;;;5053386;28;20376;-76
2022/10/03 01:35:05;;;;;;;;;;;;;;;;;;5035842;28;19943;-77
2022/10/03 01:37:31;;;;;;;;;;;;;;;;;;5053423;28;19959;-77
2022/10/03 01:39:56;;;;;;;;;;;;;;;;;;5019549;28;19982;-76
2022/10/03 01:42:21;;;;;;;;;;;;;;;;;;5035599;28;20372;-76
2022/10/03 01:44:51;;;;;;;;;;;;;;;;;;5016975;28;19913;-76
2022/10/03 01:47:17;;;;;;;;;;;;;;;;;;5033269;28;19947;-77
2022/10/03 01:49:42;;;;;;;;;;;;;;;;;;5015515;28;20563;-76
2022/10/03 01:52:08;;;;;;;;;;;;;;;;;;5033052;28;19913;-76
2022/10/03 01:54:33;;;;;;;;;;;;;;;;;;5056370;23;20332;-77
2022/10/03 01:56:58;;;;;;;;;;;;;;;;;;5092123;28;19912;-77
2022/10/03 01:59:24;;;;;;;;;;;;;;;;;;5093269;28;19909;-77
2022/10/03 02:01:49;;;;;;;;;;;;;;;;;;5074443;28;19937;-77
2022/10/03 02:04:14;;;;;;;;;;;;;;;;;;5091645;28;19958;-77
2022/10/03 02:06:41;;;;;;;;;;;;;;;;;;5091718;28;19916;-77
2022/10/03 02:09:07;;;;;;;;;;;;;;;;;;5093001;28;19913;-77
2022/10/03 02:11:33;;;;;;;;;;;;;;;;;;5092965;28;19995;-77
2022/10/03 02:13:58;;;;;;;;;;;;;;;;;;5092701;28;19996;-77
2022/10/03 02:16:24;;;;;;;;;;;;;;;;;;5091984;28;20290;-77
2022/10/03 02:18:49;;;;;;;;;;;;;;;;;;5092914;28;20264;-77
2022/10/03 02:21:15;;;;;;;;;;;;;;;;;;5091706;28;19965;-76
2022/10/03 02:23:42;;;;;;;;;;;;;;;;;;5091568;28;20329;-78
2022/10/03 02:26:08;;;;;;;;;;;;;;;;;;5092950;28;19938;-78
2022/10/03 02:28:33;;;;;;;;;;;;;;;;;;5092811;28;20434;-77
2022/10/03 02:30:58;;;;;;;;;;;;;;;;;;5091779;28;20391;-76
2022/10/03 02:33:24;;;;;;;;;;;;;;;;;;5091756;28;20381;-76
2022/10/03 02:35:49;;;;;;;;;;;;;;;;;;5091566;28;20286;-76
2022/10/03 02:38:14;;;;;;;;;;;;;;;;;;5092685;28;19912;-77
2022/10/03 02:40:40;;;;;;;;;;;;;;;;;;5092649;28;19912;-77
2022/10/03 02:43:05;;;;;;;;;;;;;;;;;;5091329;28;19912;-76
2022/10/03 02:45:31;;;;;;;;;;;;;;;;;;5093097;28;19920;-77
2022/10/03 02:47:56;;;;;;;;;;;;;;;;;;5095549;28;19919;-77
2022/10/03 02:50:22;;;;;;;;;;;;;;;;;;5109594;28;20303;-76
2022/10/03 02:52:47;;;;;;;;;;;;;;;;;;5111078;28;19913;-76
2022/10/03 02:55:12;;;;;;;;;;;;;;;;;;5112732;28;20190;-76
2022/10/03 02:57:38;;;;;;;;;;;;;;;;;;5112765;28;20399;-74
2022/10/03 03:00:03;;;;;;;;;;;;;;;;;;5106404;28;19919;-76
2022/10/03 03:02:29;;;;;;;;;;;;;;;;;;5098333;28;20395;-77
2022/10/03 03:04:55;;;;;;;;;;;;;;;;;;5078490;28;19955;-77
2022/10/03 03:07:20;;;;;;;;;;;;;;;;;;5096658;28;19927;-77
2022/10/03 03:09:46;;;;;;;;;;;;;;;;;;5094378;28;19919;-77
2022/10/03 03:12:11;;;;;;;;;;;;;;;;;;5095225;28;20427;-77
2022/10/03 03:14:37;;;;;;;;;;;;;;;;;;5096092;28;20409;-77
2022/10/03 03:17:02;;;;;;;;;;;;;;;;;;5095397;28;20363;-76
2022/10/03 03:19:28;;;;;;;;;;;;;;;;;;5096218;28;19918;-77
2022/10/03 03:21:53;;;;;;;;;;;;;;;;;;5096046;28;19912;-77
2022/10/03 03:24:19;;;;;;;;;;;;;;;;;;5093758;28;19996;-77
2022/10/03 03:26:44;;;;;;;;;;;;;;;;;;5094808;28;20420;-76
2022/10/03 03:29:09;;;;;;;;;;;;;;;;;;5094906;28;19912;-77
2022/10/03 03:31:35;;;;;;;;;;;;;;;;;;5095903;28;20333;-77
2022/10/03 03:34:01;;;;;;;;;;;;;;;;;;5095742;28;19919;-76
2022/10/03 03:36:27;;;;;;;;;;;;;;;;;;5094985;28;20417;-77
2022/10/03 03:38:52;;;;;;;;;;;;;;;;;;5095940;28;19920;-77
2022/10/03 03:41:17;;;;;;;;;;;;;;;;;;5094578;28;20405;-76
2022/10/03 03:43:43;;;;;;;;;;;;;;;;;;5095533;28;20428;-77
2022/10/03 03:46:09;;;;;;;;;;;;;;;;;;5095520;28;20011;-77
2022/10/03 03:48:38;;;;;;;;;;;;;;;;;;5095660;28;19912;-77
2022/10/03 03:51:03;;;;;;;;;;;;;;;;;;5094439;28;19919;-77
2022/10/03 03:53:29;;;;;;;;;;;;;;;;;;5093250;28;19912;-77
2022/10/03 03:55:55;;;;;;;;;;;;;;;;;;5095364;28;19916;-77
2022/10/03 03:58:20;;;;;;;;;;;;;;;;;;5094263;28;19947;-77
2022/10/03 04:00:46;;;;;;;;;;;;;;;;;;5095175;28;19912;-77
2022/10/03 04:03:12;;;;;;;;;;;;;;;;;;5077402;28;20390;-77
2022/10/03 04:05:38;;;;;;;;;;;;;;;;;;5095432;28;19961;-77
2022/10/03 04:08:09;;;;;;;;;;;;;;;;;;5094977;28;19920;-77
2022/10/03 04:10:37;;;;;;;;;;;;;;;;;;5094487;28;19912;-77
2022/10/03 04:13:02;;;;;;;;;;;;;;;;;;5094944;28;20187;-77
2022/10/03 04:15:27;;;;;;;;;;;;;;;;;;5095185;28;20375;-76
2022/10/03 04:20:37;;;;;;;;;;;;;;;;;;5095080;28;19911;-75
2022/10/03 04:23:02;;;;;;;;;;;;;;;;;;5094968;28;19912;-76
2022/10/03 04:25:27;;;;;;;;;;;;;;;;;;5093743;28;19995;-77
2022/10/03 04:27:53;;;;;;;;;;;;;;;;;;5092721;28;19966;-77
2022/10/03 04:30:18;;;;;;;;;;;;;;;;;;5094921;28;20264;-77
2022/10/03 04:32:44;;;;;;;;;;;;;;;;;;5094612;28;19912;-77
2022/10/03 04:35:09;;;;;;;;;;;;;;;;;;5094797;28;19908;-77
2022/10/03 04:37:34;;;;;;;;;;;;;;;;;;5094701;28;19965;-77
2022/10/03 04:40:00;;;;;;;;;;;;;;;;;;5094763;28;19916;-77
2022/10/03 04:42:26;;;;;;;;;;;;;;;;;;5094855;28;20003;-77
2022/10/03 04:44:51;;;;;;;;;;;;;;;;;;5093702;28;20438;-77
2022/10/03 04:47:17;;;;;;;;;;;;;;;;;;5094969;28;19993;-77
2022/10/03 04:49:42;;;;;;;;;;;;;;;;;;5094422;28;19995;-77
2022/10/03 04:52:08;;;;;;;;;;;;;;;;;;5094393;28;19948;-77
2022/10/03 04:54:33;;;;;;;;;;;;;;;;;;5094139;28;19950;-75
2022/10/03 04:56:59;;;;;;;;;;;;;;;;;;5094265;28;19915;-76
2022/10/03 04:59:24;;;;;;;;;;;;;;;;;;5094135;28;20341;-77
2022/10/03 05:01:49;;;;;;;;;;;;;;;;;;5093544;28;20438;-77
2022/10/03 05:04:15;;;;;;;;;;;;;;;;;;5092918;28;19919;-76
2022/10/03 05:06:40;;;;;;;;;;;;;;;;;;5094263;28;19924;-76
2022/10/03 05:09:05;;;;;;;;;;;;;;;;;;5094182;28;19912;-76
2022/10/03 05:11:32;;;;;;;;;;;;;;;;;;5094093;28;20291;-76
2022/10/03 05:13:58;;;;;;;;;;;;;;;;;;5093940;28;20362;-77
2022/10/03 05:16:24;;;;;;;;;;;;;;;;;;5094055;28;19912;-77
2022/10/03 05:18:49;;;;;;;;;;;;;;;;;;5078419;28;19946;-77
2022/10/03 05:21:15;;;;;;;;;;;;;;;;;;5072817;28;20001;-77
2022/10/03 05:23:40;;;;;;;;;;;;;;;;;;5073465;28;20298;-77
2022/10/03 05:26:05;;;;;;;;;;;;;;;;;;5073287;28;19916;-77
2022/10/03 05:28:32;;;;;;;;;;;;;;;;;;5072315;28;19912;-77
2022/10/03 05:30:57;;;;;;;;;;;;;;;;;;5073489;28;19919;-78
2022/10/03 05:33:23;;;;;;;;;;;;;;;;;;5082856;28;19999;-77
2022/10/03 05:35:50;;;;;;;;;;;;;;;;;;5093880;28;19962;-77
2022/10/03 05:38:15;;;;;;;;;;;;;;;;;;5093767;28;19912;-77
2022/10/03 05:40:40;;;;;;;;;;;;;;;;;;5093672;28;20333;-77
2022/10/03 05:43:05;;;;;;;;;;;;;;;;;;5093691;28;19916;-77
2022/10/03 05:45:31;;;;;;;;;;;;;;;;;;5093358;28;19947;-77
2022/10/03 05:47:56;;;;;;;;;;;;;;;;;;5093473;28;19955;-76
2022/10/03 05:50:22;;;;;;;;;;;;;;;;;;5091150;28;19941;-77
2022/10/03 05:52:49;;;;;;;;;;;;;;;;;;5092068;28;19919;-77
2022/10/03 05:55:14;;;;;;;;;;;;;;;;;;5093872;28;19923;-77
2022/10/03 05:57:40;;;;;;;;;;;;;;;;;;5094791;28;19912;-76
2022/10/03 06:00:06;;;;;;;;;;;;;;;;;;5100158;28;19912;-77
2022/10/03 06:02:37;;;;;;;;;;;;;;;;;;5110615;28;19912;-77
2022/10/03 06:05:02;;;;;;;;;;;;;;;;;;5114157;28;19920;-76
2022/10/03 06:07:27;;;;;;;;;;;;;;;;;;5113572;28;19923;-77
2022/10/03 06:09:53;;;;;;;;;;;;;;;;;;5100056;28;19920;-76
2022/10/03 06:12:20;;;;;;;;;;;;;;;;;;5093458;28;20394;-76
2022/10/03 06:14:48;;;;;;;;;;;;;;;;;;5092268;28;19958;-76
2022/10/03 06:17:13;;;;;;;;;;;;;;;;;;5091833;28;20383;-77
2022/10/03 06:19:38;;;;;;;;;;;;;;;;;;5093157;28;19909;-76
2022/10/03 06:22:04;;;;;;;;;;;;;;;;;;5090887;28;19912;-77
2022/10/03 06:24:29;;;;;;;;;;;;;;;;;;5092824;28;20335;-76
2022/10/03 06:26:54;;;;;;;;;;;;;;;;;;5091615;28;20346;-76
2022/10/03 06:29:20;;;;;;;;;;;;;;;;;;5093045;28;20290;-76
2022/10/03 06:31:46;;;;;;;;;;;;;;;;;;5091694;28;20306;-77
2022/10/03 06:34:11;;;;;;;;;;;;;;;;;;5092758;28;19955;-75
2022/10/03 06:36:37;;;;;;;;;;;;;;;;;;5092950;28;19912;-77
2022/10/03 06:39:02;;;;;;;;;;;;;;;;;;5091353;28;19919;-76
2022/10/03 06:41:27;;;;;;;;;;;;;;;;;;5091752;28;19912;-75
2022/10/03 06:43:53;;;;;;;;;;;;;;;;;;5091212;28;19999;-76
2022/10/03 06:46:18;;;;;;;;;;;;;;;;;;5092825;28;20060;-77
2022/10/03 06:48:44;;;;;;;;;;;;;;;;;;5092650;28;19919;-77
2022/10/03 06:51:09;;;;;;;;;;;;;;;;;;5091719;28;20287;-76
2022/10/03 06:53:34;;;;;;;;;;;;;;;;;;5092790;28;20276;-74
2022/10/03 06:56:00;;;;;;;;;;;;;;;;;;5092451;28;20475;-77
2022/10/03 06:58:26;;;;;;;;;;;;;;;;;;5090652;28;20374;-76
2022/10/03 07:00:51;;;;;;;;;;;;;;;;;;5092338;28;19916;-76
2022/10/03 07:03:17;;;;;;;;;;;;;;;;;;5092338;28;20332;-76
2022/10/03 07:05:42;;;;;;;;;;;;;;;;;;5092339;28;20023;-77
2022/10/03 07:08:08;;;;;;;;;;;;;;;;;;5091262;28;19955;-76
2022/10/03 07:10:33;;;;;;;;;;;;;;;;;;5064513;28;20355;-76
2022/10/03 07:12:59;;;;;;;;;;;;;;;;;;5070767;28;20309;-76
2022/10/03 07:15:25;;;;;;;;;;;;;;;;;;5063994;28;19912;-75
2022/10/03 07:17:50;;;;;;;;;;;;;;;;;;5065497;28;19917;-76
2022/10/03 07:20:17;;;;;;;;;;;;;;;;;;5065832;28;20458;-75
2022/10/03 07:22:42;;;;;;;;;;;;;;;;;;5040803;28;19931;-76
2022/10/03 07:25:07;;;;;;;;;;;;;;;;;;5067984;28;19912;-76
2022/10/03 07:27:33;;;;;;;;;;;;;;;;;;5077072;28;19919;-76
2022/10/03 07:29:58;;;;;;;;;;;;;;;;;;5069200;28;20295;-78
2022/10/03 07:32:23;;;;;;;;;;;;;;;;;;5060371;28;19979;-76
2022/10/03 07:34:49;;;;;;;;;;;;;;;;;;5066708;28;19912;-77
2022/10/03 07:39:58;;;;;;;;;;;;;;;;;;5054020;28;19919;-76
2022/10/03 07:42:24;;;;;;;;;;;;;;;;;;5070497;28;20314;-77
2022/10/03 07:44:50;;;;;;;;;;;;;;;;;;5066756;28;19916;-75
2022/10/03 07:47:15;;;;;;;;;;;;;;;;;;5066284;28;19916;-75
2022/10/03 07:49:41;;;;;;;;;;;;;;;;;;5058668;28;19916;-76
2022/10/03 07:52:07;;;;;;;;;;;;;;;;;;5072958;28;20054;-77
2022/10/03 07:54:32;;;;;;;;;;;;;;;;;;5079371;22;20001;-73
2022/10/03 07:57:02;;;;;;;;;;;;;;;;;;5040331;28;19923;-72
2022/10/03 07:59:28;;;;;;;;;;;;;;;;;;5043052;28;19913;-72
2022/10/03 08:01:56;;;;;;;;;;;;;;;;;;5037790;28;19936;-72
2022/10/03 08:04:22;;;;;;;;;;;;;;;;;;5017073;28;19921;-74
2022/10/03 08:06:50;;;;;;;;;;;;;;;;;;5025885;28;19999;-75
2022/10/03 08:09:16;;;;;;;;;;;;;;;;;;5047712;28;20316;-73
2022/10/03 08:11:41;;;;;;;;;;;;;;;;;;5006846;28;19974;-74
2022/10/03 08:14:07;;;;;;;;;;;;;;;;;;5016910;28;19988;-75
2022/10/03 08:16:32;;;;;;;;;;;;;;;;;;5023268;28;19920;-74
2022/10/03 08:18:58;;;;;;;;;;;;;;;;;;5010746;28;19917;-74
2022/10/03 08:21:26;;;;;;;;;;;;;;;;;;5016131;28;19916;-74
2022/10/03 08:23:52;;;;;;;;;;;;;;;;;;5032947;28;19944;-73
2022/10/03 08:26:17;;;;;;;;;;;;;;;;;;5016851;28;20040;-73
2022/10/03 08:28:43;;;;;;;;;;;;;;;;;;5024313;28;19913;-73
2022/10/03 08:31:08;;;;;;;;;;;;;;;;;;5016621;28;19917;-73
2022/10/03 08:33:38;;;;;;;;;;;;;;;;;;5011943;28;19913;-73
2022/10/03 08:36:03;;;;;;;;;;;;;;;;;;5037906;28;20352;-72
2022/10/03 08:38:30;;;;;;;;;;;;;;;;;;5050533;28;20371;-75
2022/10/03 08:40:56;;;;;;;;;;;;;;;;;;5053920;28;20003;-73
2022/10/03 08:43:21;;;;;;;;;;;;;;;;;;5027528;28;19995;-73
2022/10/03 08:45:47;;;;;;;;;;;;;;;;;;5056099;28;20364;-72
2022/10/03 08:48:12;;;;;;;;;;;;;;;;;;5019710;28;19963;-72
2022/10/03 08:50:39;;;;;;;;;;;;;;;;;;5046927;28;20285;-72
2022/10/03 08:53:04;;;;;;;;;;;;;;;;;;5010345;28;19913;-73
2022/10/03 08:55:30;;;;;;;;;;;;;;;;;;5004217;28;20004;-73
2022/10/03 08:57:55;;;;;;;;;;;;;;;;;;5033837;28;20364;-73
2022/10/03 09:00:21;;;;;;;;;;;;;;;;;;5015234;28;19956;-73
2022/10/03 09:02:46;;;;;;;;;;;;;;;;;;5035703;28;19975;-73
2022/10/03 09:05:12;;;;;;;;;;;;;;;;;;5033703;28;20438;-73
2022/10/03 09:07:37;;;;;;;;;;;;;;;;;;5019150;28;19913;-71
2022/10/03 09:10:03;;;;;;;;;;;;;;;;;;5035547;28;19913;-72
2022/10/03 09:12:30;;;;;;;;;;;;;;;;;;5021492;28;20323;-74
2022/10/03 09:14:55;;;;;;;;;;;;;;;;;;5016859;28;20403;-74
2022/10/03 09:17:21;;;;;;;;;;;;;;;;;;5015815;28;19953;-74
2022/10/03 09:19:51;;;;;;;;;;;;;;;;;;5029038;28;20375;-75
2022/10/03 09:22:18;;;;;;;;;;;;;;;;;;5018587;28;19913;-75
2022/10/03 09:24:43;;;;;;;;;;;;;;;;;;5035445;28;19912;-75
2022/10/03 09:27:11;;;;;;;;;;;;;;;;;;5032090;28;19918;-76
2022/10/03 09:29:37;;;;;;;;;;;;;;;;;;5022614;28;19920;-75
2022/10/03 09:32:02;;;;;;;;;;;;;;;;;;5035529;28;19909;-73
2022/10/03 09:34:28;;;;;;;;;;;;;;;;;;5038766;28;19940;-73
2022/10/03 09:36:53;;;;;;;;;;;;;;;;;;5031449;28;20299;-73
2022/10/03 09:39:19;;;;;;;;;;;;;;;;;;5019726;28;19992;-72
2022/10/03 09:41:47;;;;;;;;;;;;;;;;;;5052445;28;19912;-74
2022/10/03 09:44:13;;;;;;;;;;;;;;;;;;5022693;28;19923;-72
2022/10/03 09:46:38;;;;;;;;;;;;;;;;;;5032459;28;20471;-72
2022/10/03 09:49:04;;;;;;;;;;;;;;;;;;5001421;28;20380;-72
2022/10/03 09:51:30;;;;;;;;;;;;;;;;;;5046398;28;19913;-73
2022/10/03 09:53:55;;;;;;;;;;;;;;;;;;5042167;28;20369;-73
2022/10/03 09:56:21;;;;;;;;;;;;;;;;;;5015103;28;20337;-73
2022/10/03 09:58:46;;;;;;;;;;;;;;;;;;5032310;28;20288;-74
2022/10/03 10:01:12;;;;;;;;;;;;;;;;;;5035928;28;19967;-74
2022/10/03 10:03:37;;;;;;;;;;;;;;;;;;5034510;28;20408;-72
2022/10/03 10:06:03;;;;;;;;;;;;;;;;;;5007050;28;20008;-73
2022/10/03 10:08:28;;;;;;;;;;;;;;;;;;5028717;28;19966;-73
2022/10/03 10:10:53;;;;;;;;;;;;;;;;;;5036191;28;20331;-73
2022/10/03 10:13:19;;;;;;;;;;;;;;;;;;5013426;28;20499;-74
2022/10/03 10:15:45;;;;;;;;;;;;;;;;;;5022519;28;20007;-73
2022/10/03 10:18:10;;;;;;;;;;;;;;;;;;5040821;28;20388;-74
2022/10/03 10:20:36;;;;;;;;;;;;;;;;;;5047226;28;19913;-74
2022/10/03 10:23:03;;;;;;;;;;;;;;;;;;5035421;28;19920;-73
2022/10/03 10:25:28;;;;;;;;;;;;;;;;;;5028428;28;19936;-73
2022/10/03 10:27:54;;;;;;;;;;;;;;;;;;5023861;28;19912;-75
2022/10/03 10:30:20;;;;;;;;;;;;;;;;;;5014428;28;19913;-73
2022/10/03 10:32:46;;;;;;;;;;;;;;;;;;5010914;28;19963;-73
2022/10/03 10:35:11;;;;;;;;;;;;;;;;;;5048219;28;19987;-75
2022/10/03 10:37:37;;;;;;;;;;;;;;;;;;5021116;28;20379;-76
2022/10/03 10:40:02;;;;;;;;;;;;;;;;;;5033218;28;19915;-75
2022/10/03 10:42:28;;;;;;;;;;;;;;;;;;5033878;28;19923;-76
2022/10/03 10:44:54;;;;;;;;;;;;;;;;;;5017341;28;19921;-75
2022/10/03 10:47:19;;;;;;;;;;;;;;;;;;5029251;28;20284;-75
2022/10/03 10:49:45;;;;;;;;;;;;;;;;;;5039916;28;20011;-75
2022/10/03 10:52:12;;;;;;;;;;;;;;;;;;5006187;28;19936;-74
2022/10/03 10:54:41;;;;;;;;;;;;;;;;;;5046473;28;19917;-74
2022/10/03 10:57:06;;;;;;;;;;;;;;;;;;5030675;28;20056;-76
2022/10/03 10:59:32;;;;;;;;;;;;;;;;;;5014507;28;20457;-77
2022/10/03 11:01:58;;;;;;;;;;;;;;;;;;5020588;28;20372;-75
2022/10/03 11:04:23;;;;;;;;;;;;;;;;;;5007561;28;19913;-76
2022/10/03 11:06:51;;;;;;;;;;;;;;;;;;4984086;28;20007;-74
2022/10/03 11:09:19;;;;;;;;;;;;;;;;;;4997503;28;19972;-74
2022/10/03 11:11:45;;;;;;;;;;;;;;;;;;5021857;28;20058;-75
2022/10/03 11:14:13;;;;;;;;;;;;;;;;;;5021759;28;20400;-76
2022/10/03 11:16:46;;;;;;;;;;;;;;;;;;5014989;28;19912;-75
2022/10/03 11:19:12;;;;;;;;;;;;;;;;;;5037491;28;19935;-78
2022/10/03 11:21:40;;;;;;;;;;;;;;;;;;5033732;28;19909;-79
2022/10/03 11:24:05;;;;;;;;;;;;;;;;;;5013766;28;20398;-75
2022/10/03 11:29:24;;;;;;;;;;;;;;;;;;5023147;28;19920;-76
2022/10/03 11:31:52;;;;;;;;;;;;;;;;;;5046276;28;19913;-77
2022/10/03 11:34:22;;;;;;;;;;;;;;;;;;5017707;28;19913;-77
2022/10/03 11:36:48;;;;;;;;;;;;;;;;;;5051358;28;19996;-78
2022/10/03 11:39:14;;;;;;;;;;;;;;;;;;5021158;28;20030;-76
2022/10/03 11:41:40;;;;;;;;;;;;;;;;;;5037521;28;19913;-74
2022/10/03 11:44:06;;;;;;;;;;;;;;;;;;5055053;28;19913;-76
2022/10/03 11:46:36;;;;;;;;;;;;;;;;;;5037332;28;19939;-75
2022/10/03 11:49:01;;;;;;;;;;;;;;;;;;5037246;28;19912;-76
2022/10/03 11:51:27;;;;;;;;;;;;;;;;;;5036960;28;20020;-73
2022/10/03 11:53:52;;;;;;;;;;;;;;;;;;5020540;28;19920;-74
2022/10/03 11:56:18;;;;;;;;;;;;;;;;;;5049640;28;20081;-75
2022/10/03 11:58:44;;;;;;;;;;;;;;;;;;5004487;28;19948;-75
2022/10/03 12:01:10;;;;;;;;;;;;;;;;;;5037145;28;20386;-74
2022/10/03 12:03:38;;;;;;;;;;;;;;;;;;5054773;28;19909;-76
2022/10/03 12:09:03;;;;;;;;;;;;;;;;;;5054854;28;19913;-75
2022/10/03 12:11:29;;;;;;;;;;;;;;;;;;5018921;28;20001;-75
2022/10/03 12:13:54;;;;;;;;;;;;;;;;;;5019830;28;20387;-75
2022/10/03 12:16:20;;;;;;;;;;;;;;;;;;5020684;28;19919;-75
2022/10/03 12:18:45;;;;;;;;;;;;;;;;;;5036480;28;19913;-74
2022/10/03 12:21:11;;;;;;;;;;;;;;;;;;5003997;28;19913;-75
2022/10/03 12:23:36;;;;;;;;;;;;;;;;;;5036365;28;19920;-74
2022/10/03 12:26:02;;;;;;;;;;;;;;;;;;5036521;28;19917;-75
2022/10/03 12:28:28;;;;;;;;;;;;;;;;;;5036436;28;20380;-73
2022/10/03 12:30:54;;;;;;;;;;;;;;;;;;5031382;28;19958;-75
2022/10/03 12:33:20;;;;;;;;;;;;;;;;;;5036464;28;19975;-74
2022/10/03 12:35:45;;;;;;;;;;;;;;;;;;5020174;28;20403;-74
2022/10/03 12:38:11;;;;;;;;;;;;;;;;;;5054052;28;19936;-75
2022/10/03 12:40:36;;;;;;;;;;;;;;;;;;5053960;28;19913;-75
2022/10/03 12:43:02;;;;;;;;;;;;;;;;;;5036236;28;19999;-73
2022/10/03 12:45:27;;;;;;;;;;;;;;;;;;5048872;28;19924;-75
2022/10/03 12:47:53;;;;;;;;;;;;;;;;;;5053875;28;19917;-75
2022/10/03 12:50:20;;;;;;;;;;;;;;;;;;5019579;28;19939;-75
2022/10/03 12:52:45;;;;;;;;;;;;;;;;;;5053520;28;19978;-76
2022/10/03 12:55:11;;;;;;;;;;;;;;;;;;5035909;28;19916;-74
2022/10/03 12:57:37;;;;;;;;;;;;;;;;;;5035816;28;19920;-73
2022/10/03 13:00:04;;;;;;;;;;;;;;;;;;5036151;28;20371;-76
2022/10/03 13:02:31;;;;;;;;;;;;;;;;;;5048647;28;19924;-75
2022/10/03 13:04:56;;;;;;;;;;;;;;;;;;5003120;28;19913;-75
2022/10/03 13:07:22;;;;;;;;;;;;;;;;;;5035808;28;19917;-75
2022/10/03 13:09:48;;;;;;;;;;;;;;;;;;5053576;28;19913;-76
2022/10/03 13:12:15;;;;;;;;;;;;;;;;;;5053579;28;20011;-75
2022/10/03 13:14:42;;;;;;;;;;;;;;;;;;5035569;28;20019;-75
2022/10/03 13:17:07;;;;;;;;;;;;;;;;;;5035518;28;20031;-75
2022/10/03 13:19:33;;;;;;;;;;;;;;;;;;5018487;28;19912;-74
2022/10/03 13:22:02;;;;;;;;;;;;;;;;;;5019309;28;20402;-74
2022/10/03 13:24:31;;;;;;;;;;;;;;;;;;5051878;28;19919;-76
2022/10/03 13:26:56;;;;;;;;;;;;;;;;;;5018808;28;19917;-75
2022/10/03 13:29:24;;;;;;;;;;;;;;;;;;5018974;28;19913;-75
2022/10/03 13:31:49;;;;;;;;;;;;;;;;;;5053169;28;20019;-75
2022/10/03 13:34:15;;;;;;;;;;;;;;;;;;5035260;28;20305;-75
2022/10/03 13:36:40;;;;;;;;;;;;;;;;;;5013993;28;19913;-74
2022/10/03 13:39:06;;;;;;;;;;;;;;;;;;5018993;28;19913;-75
2022/10/03 13:41:32;;;;;;;;;;;;;;;;;;5018030;28;19920;-75
2022/10/03 13:43:58;;;;;;;;;;;;;;;;;;5018492;28;19913;-75
2022/10/03 13:46:23;;;;;;;;;;;;;;;;;;5018717;28;19916;-75
2022/10/03 13:48:49;;;;;;;;;;;;;;;;;;5053006;28;20000;-75
2022/10/03 13:51:14;;;;;;;;;;;;;;;;;;5032863;28;19913;-74
2022/10/03 13:53:42;;;;;;;;;;;;;;;;;;5017267;28;19952;-74
2022/10/03 13:56:08;;;;;;;;;;;;;;;;;;5042355;23;20023;-79
2022/10/03 13:58:34;;;;;;;;;;;;;;;;;;5072869;28;19955;-78
2022/10/03 14:01:00;;;;;;;;;;;;;;;;;;5072842;28;20264;-78
2022/10/03 14:03:25;;;;;;;;;;;;;;;;;;5072839;28;19973;-78
2022/10/03 14:05:50;;;;;;;;;;;;;;;;;;5072735;28;20319;-79
2022/10/03 14:08:16;;;;;;;;;;;;;;;;;;5067818;28;19912;-79
2022/10/03 14:10:41;;;;;;;;;;;;;;;;;;5072499;28;19917;-79
2022/10/03 14:13:09;;;;;;;;;;;;;;;;;;5073123;28;19955;-78
2022/10/03 14:15:35;;;;;;;;;;;;;;;;;;5073632;28;20454;-78
2022/10/03 14:18:00;;;;;;;;;;;;;;;;;;5056617;28;20042;-79
2022/10/03 14:20:25;;;;;;;;;;;;;;;;;;5075697;28;19913;-78
2022/10/03 14:22:51;;;;;;;;;;;;;;;;;;5073476;28;19920;-79
2022/10/03 14:25:16;;;;;;;;;;;;;;;;;;5071012;28;23274;-79
2022/10/03 14:27:41;;;;;;;;;;;;;;;;;;5055037;28;20038;-79
2022/10/03 14:30:08;;;;;;;;;;;;;;;;;;5052497;28;20562;-78
2022/10/03 14:32:34;;;;;;;;;;;;;;;;;;5052073;28;20004;-78
2022/10/03 14:34:59;;;;;;;;;;;;;;;;;;5052362;28;19952;-79
2022/10/03 14:37:24;;;;;;;;;;;;;;;;;;5052188;28;19948;-78
2022/10/03 14:39:50;;;;;;;;;;;;;;;;;;5052066;28;19975;-78
2022/10/03 14:42:16;;;;;;;;;;;;;;;;;;5053067;28;20288;-78
2022/10/03 14:44:42;;;;;;;;;;;;;;;;;;5072172;28;19923;-78
2022/10/03 14:47:07;;;;;;;;;;;;;;;;;;5072222;28;19916;-79
2022/10/03 14:49:35;;;;;;;;;;;;;;;;;;5071938;28;19974;-78
2022/10/03 14:52:00;;;;;;;;;;;;;;;;;;5072453;28;19939;-79
2022/10/03 14:54:25;;;;;;;;;;;;;;;;;;5053810;28;20375;-80
2022/10/03 14:56:51;;;;;;;;;;;;;;;;;;5053870;28;20451;-78
2022/10/03 14:59:16;;;;;;;;;;;;;;;;;;5067033;28;19908;-78
2022/10/03 15:01:42;;;;;;;;;;;;;;;;;;5037575;28;19920;-79
2022/10/03 15:04:08;;;;;;;;;;;;;;;;;;5071712;28;20000;-78
2022/10/03 15:06:34;;;;;;;;;;;;;;;;;;5054011;28;19920;-77
2022/10/03 15:09:01;;;;;;;;;;;;;;;;;;5053946;28;19966;-78
2022/10/03 15:11:26;;;;;;;;;;;;;;;;;;5071847;28;19912;-79
2022/10/03 15:13:52;;;;;;;;;;;;;;;;;;5053925;28;19912;-78
2022/10/03 15:16:17;;;;;;;;;;;;;;;;;;5048889;28;20371;-78
2022/10/03 15:18:42;;;;;;;;;;;;;;;;;;5071585;28;19912;-78
2022/10/03 15:21:08;;;;;;;;;;;;;;;;;;5072114;28;19943;-76
2022/10/03 15:23:33;;;;;;;;;;;;;;;;;;5073029;28;19913;-76
2022/10/03 15:25:58;;;;;;;;;;;;;;;;;;5072078;28;19935;-77
2022/10/03 15:28:24;;;;;;;;;;;;;;;;;;5053544;28;20103;-79
2022/10/03 15:30:49;;;;;;;;;;;;;;;;;;5071503;28;19912;-78
2022/10/03 15:33:14;;;;;;;;;;;;;;;;;;5048720;28;19920;-77
2022/10/03 15:35:40;;;;;;;;;;;;;;;;;;5071406;28;20393;-78
2022/10/03 15:38:06;;;;;;;;;;;;;;;;;;5071563;28;19912;-77
2022/10/03 15:40:31;;;;;;;;;;;;;;;;;;5062862;28;19927;-76
2022/10/03 15:42:56;;;;;;;;;;;;;;;;;;5070769;28;20371;-78
2022/10/03 15:45:22;;;;;;;;;;;;;;;;;;5044091;28;19931;-78
2022/10/03 15:47:48;;;;;;;;;;;;;;;;;;5046238;28;19917;-79
2022/10/03 15:50:14;;;;;;;;;;;;;;;;;;5071016;28;19913;-79
2022/10/03 15:52:40;;;;;;;;;;;;;;;;;;5054380;28;19919;-76
2022/10/03 15:55:05;;;;;;;;;;;;;;;;;;5046380;28;20384;-82
2022/10/03 15:57:31;;;;;;;;;;;;;;;;;;5052678;28;19913;-78
2022/10/03 15:59:57;;;;;;;;;;;;;;;;;;5052057;28;19912;-78
2022/10/03 16:02:22;;;;;;;;;;;;;;;;;;5050962;28;19923;-78
2022/10/03 16:04:48;;;;;;;;;;;;;;;;;;5052775;28;19913;-76
2022/10/03 16:07:13;;;;;;;;;;;;;;;;;;5054619;28;20299;-77
2022/10/03 16:09:38;;;;;;;;;;;;;;;;;;5037141;28;19920;-77
2022/10/03 16:12:04;;;;;;;;;;;;;;;;;;5041503;28;19917;-78
2022/10/03 16:14:29;;;;;;;;;;;;;;;;;;5056478;28;19913;-76
2022/10/03 16:16:54;;;;;;;;;;;;;;;;;;5074609;28;19908;-78
2022/10/03 16:19:20;;;;;;;;;;;;;;;;;;5074586;28;19923;-77
2022/10/03 16:21:45;;;;;;;;;;;;;;;;;;5074464;28;20011;-77
2022/10/03 16:24:11;;;;;;;;;;;;;;;;;;5076413;28;19955;-83
2022/10/03 16:26:36;;;;;;;;;;;;;;;;;;5048183;28;20328;-75
2022/10/03 16:29:01;;;;;;;;;;;;;;;;;;5073805;28;19920;-76
2022/10/03 16:31:27;;;;;;;;;;;;;;;;;;5058371;28;20042;-76
2022/10/03 16:33:52;;;;;;;;;;;;;;;;;;5070564;28;20379;-75
2022/10/03 16:36:18;;;;;;;;;;;;;;;;;;5041393;28;19955;-77
2022/10/03 16:38:43;;;;;;;;;;;;;;;;;;5064874;28;19912;-75
2022/10/03 16:41:09;;;;;;;;;;;;;;;;;;5031879;28;20021;-75
2022/10/03 16:43:34;;;;;;;;;;;;;;;;;;5050679;28;20011;-76
2022/10/03 16:45:59;;;;;;;;;;;;;;;;;;5070341;28;19917;-76
2022/10/03 16:51:09;;;;;;;;;;;;;;;;;;5061232;28;19920;-77